sensor_id;sensor_type;location;lat;lon;timestamp;temperature;humidity
46085;DHT22;31823;47.032;8.310;2023-04-09T00:01:08;5.60;99.90
46085;DHT22;31823;47.032;8.310;2023-04-09T00:03:35;5.70;99.90
46085;DHT22;31823;47.032;8.310;2023-04-09T00:06:01;5.60;99.90
46085;DHT22;31823;47.032;8.310;2023-04-09T00:08:27;5.60;99.90
46085;DHT22;31823;47.032;8.310;2023-04-09T00:10:53;5.60;99.90
46085;DHT22;31823;47.032;8.310;2023-04-09T00:13:19;5.60;99.90
46085;DHT22;31823;47.032;8.310;2023-04-09T00:15:45;5.60;99.90
46085;DHT22;31823;47.032;8.310;2023-04-09T00:18:12;5.60;99.90
46085;DHT22;31823;47.032;8.310;2023-04-09T00:20:38;5.60;99.90
46085;DHT22;31823;47.032;8.310;2023-04-09T00:23:03;5.60;99.90
46085;DHT22;31823;47.032;8.310;2023-04-09T00:25:29;5.50;99.90
46085;DHT22;31823;47.032;8.310;2023-04-09T00:27:55;5.40;99.90
46085;DHT22;31823;47.032;8.310;2023-04-09T00:30:21;5.40;99.90
46085;DHT22;31823;47.032;8.310;2023-04-09T00:32:48;5.30;99.90
46085;DHT22;31823;47.032;8.310;2023-04-09T00:35:13;5.20;99.90
46085;DHT22;31823;47.032;8.310;2023-04-09T00:37:40;5.20;99.90
46085;DHT22;31823;47.032;8.310;2023-04-09T00:40:06;5.10;99.90
46085;DHT22;31823;47.032;8.310;2023-04-09T00:42:33;5.00;99.90
46085;DHT22;31823;47.032;8.310;2023-04-09T00:44:59;4.90;99.90
46085;DHT22;31823;47.032;8.310;2023-04-09T00:47:26;4.90;99.90
46085;DHT22;31823;47.032;8.310;2023-04-09T00:49:54;4.80;99.90
46085;DHT22;31823;47.032;8.310;2023-04-09T00:52:20;4.80;99.90
46085;DHT22;31823;47.032;8.310;2023-04-09T00:54:47;4.70;99.90
46085;DHT22;31823;47.032;8.310;2023-04-09T00:57:14;4.70;99.90
46085;DHT22;31823;47.032;8.310;2023-04-09T00:59:40;4.60;99.90
46085;DHT22;31823;47.032;8.310;2023-04-09T01:02:05;4.60;99.90
46085;DHT22;31823;47.032;8.310;2023-04-09T01:04:31;4.50;99.90
46085;DHT22;31823;47.032;8.310;2023-04-09T01:07:10;4.50;99.90
46085;DHT22;31823;47.032;8.310;2023-04-09T01:09:42;4.40;99.90
46085;DHT22;31823;47.032;8.310;2023-04-09T01:15:12;4.30;99.90
46085;DHT22;31823;47.032;8.310;2023-04-09T01:17:49;4.30;99.90
46085;DHT22;31823;47.032;8.310;2023-04-09T01:20:31;4.30;99.90
46085;DHT22;31823;47.032;8.310;2023-04-09T01:28:26;4.20;99.90
46085;DHT22;31823;47.032;8.310;2023-04-09T01:30:56;4.20;99.90
46085;DHT22;31823;47.032;8.310;2023-04-09T01:33:24;4.20;99.90
46085;DHT22;31823;47.032;8.310;2023-04-09T01:35:51;4.20;99.90
46085;DHT22;31823;47.032;8.310;2023-04-09T01:38:18;4.20;99.90
46085;DHT22;31823;47.032;8.310;2023-04-09T01:40:44;4.20;99.90
46085;DHT22;31823;47.032;8.310;2023-04-09T01:43:11;4.10;99.90
46085;DHT22;31823;47.032;8.310;2023-04-09T01:45:38;4.10;99.90
46085;DHT22;31823;47.032;8.310;2023-04-09T01:48:04;4.00;99.90
46085;DHT22;31823;47.032;8.310;2023-04-09T01:50:31;4.00;99.90
46085;DHT22;31823;47.032;8.310;2023-04-09T01:52:58;4.00;99.90
46085;DHT22;31823;47.032;8.310;2023-04-09T01:55:24;4.10;99.90
46085;DHT22;31823;47.032;8.310;2023-04-09T01:57:50;4.10;99.90
46085;DHT22;31823;47.032;8.310;2023-04-09T02:00:15;4.00;99.90
46085;DHT22;31823;47.032;8.310;2023-04-09T02:05:24;4.00;99.90
46085;DHT22;31823;47.032;8.310;2023-04-09T02:07:55;3.90;99.90
46085;DHT22;31823;47.032;8.310;2023-04-09T02:10:25;3.90;99.90
46085;DHT22;31823;47.032;8.310;2023-04-09T02:12:52;3.80;99.90
46085;DHT22;31823;47.032;8.310;2023-04-09T02:15:20;3.90;99.90
46085;DHT22;31823;47.032;8.310;2023-04-09T02:17:46;3.90;99.90
46085;DHT22;31823;47.032;8.310;2023-04-09T02:20:16;3.80;99.90
46085;DHT22;31823;47.032;8.310;2023-04-09T02:22:42;3.80;99.90
46085;DHT22;31823;47.032;8.310;2023-04-09T02:25:08;3.80;99.90
46085;DHT22;31823;47.032;8.310;2023-04-09T02:27:34;3.70;99.90
46085;DHT22;31823;47.032;8.310;2023-04-09T02:30:00;3.70;99.90
46085;DHT22;31823;47.032;8.310;2023-04-09T02:32:25;3.70;99.90
46085;DHT22;31823;47.032;8.310;2023-04-09T02:34:51;3.70;99.90
46085;DHT22;31823;47.032;8.310;2023-04-09T02:37:16;3.60;99.90
46085;DHT22;31823;47.032;8.310;2023-04-09T02:39:42;3.60;99.90
46085;DHT22;31823;47.032;8.310;2023-04-09T02:42:08;3.60;99.90
46085;DHT22;31823;47.032;8.310;2023-04-09T02:44:34;3.60;99.90
46085;DHT22;31823;47.032;8.310;2023-04-09T02:46:59;3.60;99.90
46085;DHT22;31823;47.032;8.310;2023-04-09T02:49:25;3.70;99.90
46085;DHT22;31823;47.032;8.310;2023-04-09T02:51:50;3.60;99.90
46085;DHT22;31823;47.032;8.310;2023-04-09T02:54:16;3.60;99.90
46085;DHT22;31823;47.032;8.310;2023-04-09T02:56:42;3.60;99.90
46085;DHT22;31823;47.032;8.310;2023-04-09T02:59:07;3.70;99.90
46085;DHT22;31823;47.032;8.310;2023-04-09T03:01:33;3.60;99.90
46085;DHT22;31823;47.032;8.310;2023-04-09T03:03:59;3.70;99.90
46085;DHT22;31823;47.032;8.310;2023-04-09T03:06:25;3.70;99.90
46085;DHT22;31823;47.032;8.310;2023-04-09T03:08:51;3.70;99.90
46085;DHT22;31823;47.032;8.310;2023-04-09T03:11:16;3.90;99.90
46085;DHT22;31823;47.032;8.310;2023-04-09T03:13:42;4.00;99.90
46085;DHT22;31823;47.032;8.310;2023-04-09T03:16:08;4.10;99.90
46085;DHT22;31823;47.032;8.310;2023-04-09T03:18:35;4.20;99.90
46085;DHT22;31823;47.032;8.310;2023-04-09T03:21:07;4.20;99.90
46085;DHT22;31823;47.032;8.310;2023-04-09T03:23:33;4.30;99.90
46085;DHT22;31823;47.032;8.310;2023-04-09T03:26:05;4.30;99.90
46085;DHT22;31823;47.032;8.310;2023-04-09T03:28:31;4.40;99.90
46085;DHT22;31823;47.032;8.310;2023-04-09T03:30:57;4.50;99.90
46085;DHT22;31823;47.032;8.310;2023-04-09T03:33:23;4.50;99.90
46085;DHT22;31823;47.032;8.310;2023-04-09T03:35:50;4.60;99.90
46085;DHT22;31823;47.032;8.310;2023-04-09T03:38:15;4.70;99.90
46085;DHT22;31823;47.032;8.310;2023-04-09T03:40:41;4.80;99.90
46085;DHT22;31823;47.032;8.310;2023-04-09T03:43:07;4.90;99.90
46085;DHT22;31823;47.032;8.310;2023-04-09T03:45:33;5.00;99.90
46085;DHT22;31823;47.032;8.310;2023-04-09T03:47:58;4.90;99.90
46085;DHT22;31823;47.032;8.310;2023-04-09T03:50:24;4.80;99.90
46085;DHT22;31823;47.032;8.310;2023-04-09T03:52:49;4.90;99.90
46085;DHT22;31823;47.032;8.310;2023-04-09T03:55:15;4.90;99.90
46085;DHT22;31823;47.032;8.310;2023-04-09T03:57:40;5.00;99.90
46085;DHT22;31823;47.032;8.310;2023-04-09T04:00:06;5.00;99.90
46085;DHT22;31823;47.032;8.310;2023-04-09T04:02:32;5.20;99.90
46085;DHT22;31823;47.032;8.310;2023-04-09T04:05:01;5.20;99.90
46085;DHT22;31823;47.032;8.310;2023-04-09T04:07:26;5.10;99.90
46085;DHT22;31823;47.032;8.310;2023-04-09T04:09:52;5.10;99.90
46085;DHT22;31823;47.032;8.310;2023-04-09T04:12:18;5.10;99.90
46085;DHT22;31823;47.032;8.310;2023-04-09T04:14:43;5.10;99.90
46085;DHT22;31823;47.032;8.310;2023-04-09T04:17:09;5.10;99.90
46085;DHT22;31823;47.032;8.310;2023-04-09T04:19:36;5.10;99.90
46085;DHT22;31823;47.032;8.310;2023-04-09T04:22:01;5.10;99.90
46085;DHT22;31823;47.032;8.310;2023-04-09T04:24:27;5.30;99.90
46085;DHT22;31823;47.032;8.310;2023-04-09T04:26:52;5.40;99.90
46085;DHT22;31823;47.032;8.310;2023-04-09T04:29:18;5.40;99.90
46085;DHT22;31823;47.032;8.310;2023-04-09T04:31:43;5.30;99.90
46085;DHT22;31823;47.032;8.310;2023-04-09T04:34:09;5.30;99.90
46085;DHT22;31823;47.032;8.310;2023-04-09T04:36:36;5.10;99.90
46085;DHT22;31823;47.032;8.310;2023-04-09T04:39:02;5.10;99.90
46085;DHT22;31823;47.032;8.310;2023-04-09T04:41:27;5.00;99.90
46085;DHT22;31823;47.032;8.310;2023-04-09T04:43:53;5.00;99.90
46085;DHT22;31823;47.032;8.310;2023-04-09T04:46:19;5.10;99.90
46085;DHT22;31823;47.032;8.310;2023-04-09T04:48:45;5.00;99.90
46085;DHT22;31823;47.032;8.310;2023-04-09T04:51:10;5.00;99.90
46085;DHT22;31823;47.032;8.310;2023-04-09T04:53:36;5.10;99.90
46085;DHT22;31823;47.032;8.310;2023-04-09T04:56:01;5.20;99.90
46085;DHT22;31823;47.032;8.310;2023-04-09T04:58:27;5.00;99.90
46085;DHT22;31823;47.032;8.310;2023-04-09T05:00:53;5.00;99.90
46085;DHT22;31823;47.032;8.310;2023-04-09T05:03:19;5.00;99.90
46085;DHT22;31823;47.032;8.310;2023-04-09T05:05:44;5.00;99.90
46085;DHT22;31823;47.032;8.310;2023-04-09T05:08:10;5.00;99.90
46085;DHT22;31823;47.032;8.310;2023-04-09T05:10:39;5.10;99.90
46085;DHT22;31823;47.032;8.310;2023-04-09T05:13:04;5.00;99.90
46085;DHT22;31823;47.032;8.310;2023-04-09T05:15:30;5.10;99.90
46085;DHT22;31823;47.032;8.310;2023-04-09T05:17:55;5.10;99.90
46085;DHT22;31823;47.032;8.310;2023-04-09T05:20:22;5.20;99.90
46085;DHT22;31823;47.032;8.310;2023-04-09T05:22:48;5.20;99.90
46085;DHT22;31823;47.032;8.310;2023-04-09T05:25:13;5.20;99.90
46085;DHT22;31823;47.032;8.310;2023-04-09T05:27:40;5.20;99.90
46085;DHT22;31823;47.032;8.310;2023-04-09T05:30:06;5.10;99.90
46085;DHT22;31823;47.032;8.310;2023-04-09T05:32:32;5.10;99.90
46085;DHT22;31823;47.032;8.310;2023-04-09T05:34:57;5.10;99.90
46085;DHT22;31823;47.032;8.310;2023-04-09T05:37:23;5.20;99.90
46085;DHT22;31823;47.032;8.310;2023-04-09T05:39:48;5.10;99.90
46085;DHT22;31823;47.032;8.310;2023-04-09T05:42:14;5.10;99.90
46085;DHT22;31823;47.032;8.310;2023-04-09T05:44:40;5.20;99.90
46085;DHT22;31823;47.032;8.310;2023-04-09T05:47:05;5.20;99.90
46085;DHT22;31823;47.032;8.310;2023-04-09T05:49:31;5.10;99.90
46085;DHT22;31823;47.032;8.310;2023-04-09T05:51:57;5.10;99.90
46085;DHT22;31823;47.032;8.310;2023-04-09T05:54:22;5.20;99.90
46085;DHT22;31823;47.032;8.310;2023-04-09T05:56:48;5.20;99.90
46085;DHT22;31823;47.032;8.310;2023-04-09T05:59:13;5.30;99.90
46085;DHT22;31823;47.032;8.310;2023-04-09T06:01:39;5.40;99.90
46085;DHT22;31823;47.032;8.310;2023-04-09T06:04:05;5.50;99.90
46085;DHT22;31823;47.032;8.310;2023-04-09T06:06:30;5.50;99.90
46085;DHT22;31823;47.032;8.310;2023-04-09T06:08:56;5.40;99.90
46085;DHT22;31823;47.032;8.310;2023-04-09T06:11:22;5.40;99.90
46085;DHT22;31823;47.032;8.310;2023-04-09T06:13:48;5.50;99.90
46085;DHT22;31823;47.032;8.310;2023-04-09T06:16:13;5.40;99.90
46085;DHT22;31823;47.032;8.310;2023-04-09T06:18:39;5.40;99.90
46085;DHT22;31823;47.032;8.310;2023-04-09T06:21:07;5.40;99.90
46085;DHT22;31823;47.032;8.310;2023-04-09T06:23:34;5.50;99.90
46085;DHT22;31823;47.032;8.310;2023-04-09T06:26:01;5.60;99.90
46085;DHT22;31823;47.032;8.310;2023-04-09T06:28:30;5.50;99.90
46085;DHT22;31823;47.032;8.310;2023-04-09T06:30:56;5.60;99.90
46085;DHT22;31823;47.032;8.310;2023-04-09T06:33:22;5.60;99.90
46085;DHT22;31823;47.032;8.310;2023-04-09T06:35:47;5.70;99.90
46085;DHT22;31823;47.032;8.310;2023-04-09T06:38:14;5.70;99.90
46085;DHT22;31823;47.032;8.310;2023-04-09T06:40:40;5.70;99.90
46085;DHT22;31823;47.032;8.310;2023-04-09T06:43:07;5.70;99.90
46085;DHT22;31823;47.032;8.310;2023-04-09T06:45:35;5.80;99.90
46085;DHT22;31823;47.032;8.310;2023-04-09T06:48:02;5.80;99.90
46085;DHT22;31823;47.032;8.310;2023-04-09T06:50:28;5.90;99.90
46085;DHT22;31823;47.032;8.310;2023-04-09T06:52:57;6.00;99.90
46085;DHT22;31823;47.032;8.310;2023-04-09T06:55:22;6.20;99.90
46085;DHT22;31823;47.032;8.310;2023-04-09T06:57:48;6.20;99.90
46085;DHT22;31823;47.032;8.310;2023-04-09T07:00:14;6.20;99.90
46085;DHT22;31823;47.032;8.310;2023-04-09T07:02:39;6.10;99.90
46085;DHT22;31823;47.032;8.310;2023-04-09T07:05:05;6.20;99.90
46085;DHT22;31823;47.032;8.310;2023-04-09T07:07:31;6.10;99.90
46085;DHT22;31823;47.032;8.310;2023-04-09T07:09:57;6.10;99.90
46085;DHT22;31823;47.032;8.310;2023-04-09T07:14:52;6.30;99.90
46085;DHT22;31823;47.032;8.310;2023-04-09T07:17:18;6.30;99.90
46085;DHT22;31823;47.032;8.310;2023-04-09T07:19:44;6.40;99.90
46085;DHT22;31823;47.032;8.310;2023-04-09T07:22:09;6.30;99.90
46085;DHT22;31823;47.032;8.310;2023-04-09T07:24:35;6.50;99.90
46085;DHT22;31823;47.032;8.310;2023-04-09T07:27:04;6.70;99.90
46085;DHT22;31823;47.032;8.310;2023-04-09T07:29:30;6.70;99.90
46085;DHT22;31823;47.032;8.310;2023-04-09T07:31:55;6.80;99.90
46085;DHT22;31823;47.032;8.310;2023-04-09T07:34:21;7.00;99.90
46085;DHT22;31823;47.032;8.310;2023-04-09T07:36:46;7.00;99.90
46085;DHT22;31823;47.032;8.310;2023-04-09T07:39:12;6.90;99.90
46085;DHT22;31823;47.032;8.310;2023-04-09T07:41:38;7.00;99.90
46085;DHT22;31823;47.032;8.310;2023-04-09T07:44:05;7.00;99.90
46085;DHT22;31823;47.032;8.310;2023-04-09T07:46:30;6.90;99.90
46085;DHT22;31823;47.032;8.310;2023-04-09T07:48:56;6.90;99.90
46085;DHT22;31823;47.032;8.310;2023-04-09T07:51:22;6.80;99.90
46085;DHT22;31823;47.032;8.310;2023-04-09T07:53:47;6.70;99.90
46085;DHT22;31823;47.032;8.310;2023-04-09T07:56:13;7.00;99.90
46085;DHT22;31823;47.032;8.310;2023-04-09T07:58:38;7.10;99.90
46085;DHT22;31823;47.032;8.310;2023-04-09T08:01:04;7.00;99.90
46085;DHT22;31823;47.032;8.310;2023-04-09T08:03:30;7.10;99.90
46085;DHT22;31823;47.032;8.310;2023-04-09T08:05:56;7.40;99.90
46085;DHT22;31823;47.032;8.310;2023-04-09T08:08:21;7.20;99.90
46085;DHT22;31823;47.032;8.310;2023-04-09T08:10:47;7.30;99.90
46085;DHT22;31823;47.032;8.310;2023-04-09T08:13:13;7.30;99.90
46085;DHT22;31823;47.032;8.310;2023-04-09T08:15:38;7.30;99.90
46085;DHT22;31823;47.032;8.310;2023-04-09T08:18:04;7.30;99.90
46085;DHT22;31823;47.032;8.310;2023-04-09T08:20:30;7.40;99.90
46085;DHT22;31823;47.032;8.310;2023-04-09T08:22:57;7.50;99.90
46085;DHT22;31823;47.032;8.310;2023-04-09T08:25:23;7.80;99.90
46085;DHT22;31823;47.032;8.310;2023-04-09T08:27:49;8.10;99.90
46085;DHT22;31823;47.032;8.310;2023-04-09T08:30:14;7.80;99.90
46085;DHT22;31823;47.032;8.310;2023-04-09T08:32:40;7.80;99.90
46085;DHT22;31823;47.032;8.310;2023-04-09T08:35:06;7.90;99.90
46085;DHT22;31823;47.032;8.310;2023-04-09T08:37:32;8.20;99.90
46085;DHT22;31823;47.032;8.310;2023-04-09T08:39:58;8.30;99.90
46085;DHT22;31823;47.032;8.310;2023-04-09T08:42:25;8.20;99.90
46085;DHT22;31823;47.032;8.310;2023-04-09T08:44:51;8.30;99.90
46085;DHT22;31823;47.032;8.310;2023-04-09T08:47:19;8.40;99.90
46085;DHT22;31823;47.032;8.310;2023-04-09T08:49:44;8.50;99.90
46085;DHT22;31823;47.032;8.310;2023-04-09T08:52:12;8.80;99.90
46085;DHT22;31823;47.032;8.310;2023-04-09T08:54:40;8.60;99.90
46085;DHT22;31823;47.032;8.310;2023-04-09T08:57:06;8.80;99.90
46085;DHT22;31823;47.032;8.310;2023-04-09T08:59:32;8.90;99.90
46085;DHT22;31823;47.032;8.310;2023-04-09T09:02:08;8.90;99.90
46085;DHT22;31823;47.032;8.310;2023-04-09T09:04:48;8.80;99.90
46085;DHT22;31823;47.032;8.310;2023-04-09T09:07:14;8.80;99.90
46085;DHT22;31823;47.032;8.310;2023-04-09T09:09:51;8.70;99.90
46085;DHT22;31823;47.032;8.310;2023-04-09T09:15:02;8.70;99.90
46085;DHT22;31823;47.032;8.310;2023-04-09T09:17:27;9.10;99.90
46085;DHT22;31823;47.032;8.310;2023-04-09T09:19:53;9.10;99.90
46085;DHT22;31823;47.032;8.310;2023-04-09T09:22:19;9.20;99.90
46085;DHT22;31823;47.032;8.310;2023-04-09T09:24:46;9.30;99.90
46085;DHT22;31823;47.032;8.310;2023-04-09T09:27:33;9.50;99.90
46085;DHT22;31823;47.032;8.310;2023-04-09T09:30:03;9.20;99.90
46085;DHT22;31823;47.032;8.310;2023-04-09T09:32:33;9.20;99.90
46085;DHT22;31823;47.032;8.310;2023-04-09T09:37:28;9.30;99.90
46085;DHT22;31823;47.032;8.310;2023-04-09T09:39:54;9.20;99.90
46085;DHT22;31823;47.032;8.310;2023-04-09T09:42:20;9.40;99.90
46085;DHT22;31823;47.032;8.310;2023-04-09T09:44:46;9.70;99.90
46085;DHT22;31823;47.032;8.310;2023-04-09T09:47:13;9.70;99.90
46085;DHT22;31823;47.032;8.310;2023-04-09T09:49:39;9.70;99.90
46085;DHT22;31823;47.032;8.310;2023-04-09T09:52:09;9.40;99.90
46085;DHT22;31823;47.032;8.310;2023-04-09T09:54:42;9.80;99.90
46085;DHT22;31823;47.032;8.310;2023-04-09T09:57:12;10.00;99.90
46085;DHT22;31823;47.032;8.310;2023-04-09T10:00:06;9.90;99.90
46085;DHT22;31823;47.032;8.310;2023-04-09T10:02:39;10.00;99.90
46085;DHT22;31823;47.032;8.310;2023-04-09T10:05:08;10.00;99.90
46085;DHT22;31823;47.032;8.310;2023-04-09T10:07:36;10.20;99.90
46085;DHT22;31823;47.032;8.310;2023-04-09T10:10:02;10.60;99.90
46085;DHT22;31823;47.032;8.310;2023-04-09T10:12:29;10.30;99.90
46085;DHT22;31823;47.032;8.310;2023-04-09T10:14:55;10.00;99.90
46085;DHT22;31823;47.032;8.310;2023-04-09T10:17:22;10.20;99.90
46085;DHT22;31823;47.032;8.310;2023-04-09T10:20:33;9.70;99.90
46085;DHT22;31823;47.032;8.310;2023-04-09T10:23:04;10.00;99.90
46085;DHT22;31823;47.032;8.310;2023-04-09T10:25:31;11.30;99.90
46085;DHT22;31823;47.032;8.310;2023-04-09T10:28:01;10.30;99.90
46085;DHT22;31823;47.032;8.310;2023-04-09T10:30:31;10.40;99.90
46085;DHT22;31823;47.032;8.310;2023-04-09T10:33:14;11.80;99.90
46085;DHT22;31823;47.032;8.310;2023-04-09T10:35:41;11.50;99.90
46085;DHT22;31823;47.032;8.310;2023-04-09T10:38:09;11.90;99.90
46085;DHT22;31823;47.032;8.310;2023-04-09T10:40:55;12.10;99.90
46085;DHT22;31823;47.032;8.310;2023-04-09T10:43:20;11.50;99.90
46085;DHT22;31823;47.032;8.310;2023-04-09T10:45:47;11.50;99.90
46085;DHT22;31823;47.032;8.310;2023-04-09T10:48:20;11.10;99.90
46085;DHT22;31823;47.032;8.310;2023-04-09T10:50:50;10.80;99.90
46085;DHT22;31823;47.032;8.310;2023-04-09T10:53:22;10.70;99.90
46085;DHT22;31823;47.032;8.310;2023-04-09T10:55:50;10.80;99.90
46085;DHT22;31823;47.032;8.310;2023-04-09T10:58:15;10.70;99.90
46085;DHT22;31823;47.032;8.310;2023-04-09T11:00:49;11.20;99.90
46085;DHT22;31823;47.032;8.310;2023-04-09T11:05:49;11.40;99.90
46085;DHT22;31823;47.032;8.310;2023-04-09T11:08:15;12.30;99.90
46085;DHT22;31823;47.032;8.310;2023-04-09T11:10:43;12.90;99.90
46085;DHT22;31823;47.032;8.310;2023-04-09T11:13:16;12.90;99.90
46085;DHT22;31823;47.032;8.310;2023-04-09T11:15:43;13.30;99.90
46085;DHT22;31823;47.032;8.310;2023-04-09T11:18:20;13.10;99.90
46085;DHT22;31823;47.032;8.310;2023-04-09T11:20:46;13.30;99.90
46085;DHT22;31823;47.032;8.310;2023-04-09T11:23:13;13.30;99.90
46085;DHT22;31823;47.032;8.310;2023-04-09T11:25:39;13.30;99.90
46085;DHT22;31823;47.032;8.310;2023-04-09T11:28:06;12.20;99.90
46085;DHT22;31823;47.032;8.310;2023-04-09T11:30:33;12.00;99.90
46085;DHT22;31823;47.032;8.310;2023-04-09T11:32:59;13.00;99.90
46085;DHT22;31823;47.032;8.310;2023-04-09T11:35:25;13.40;99.70
46085;DHT22;31823;47.032;8.310;2023-04-09T11:37:51;13.50;99.90
46085;DHT22;31823;47.032;8.310;2023-04-09T11:40:25;13.40;99.90
46085;DHT22;31823;47.032;8.310;2023-04-09T11:42:53;14.30;99.90
46085;DHT22;31823;47.032;8.310;2023-04-09T11:45:21;14.20;99.90
46085;DHT22;31823;47.032;8.310;2023-04-09T11:47:47;13.80;99.90
46085;DHT22;31823;47.032;8.310;2023-04-09T11:50:13;13.90;99.90
46085;DHT22;31823;47.032;8.310;2023-04-09T11:52:41;12.80;99.90
46085;DHT22;31823;47.032;8.310;2023-04-09T11:55:08;12.90;99.90
46085;DHT22;31823;47.032;8.310;2023-04-09T11:57:39;13.90;99.40
46085;DHT22;31823;47.032;8.310;2023-04-09T12:00:07;13.60;99.90
46085;DHT22;31823;47.032;8.310;2023-04-09T12:02:36;13.30;99.90
46085;DHT22;31823;47.032;8.310;2023-04-09T12:05:06;13.30;99.90
46085;DHT22;31823;47.032;8.310;2023-04-09T12:07:35;13.20;99.90
46085;DHT22;31823;47.032;8.310;2023-04-09T12:10:09;13.00;99.50
46085;DHT22;31823;47.032;8.310;2023-04-09T12:12:46;12.90;99.90
46085;DHT22;31823;47.032;8.310;2023-04-09T12:15:22;13.50;98.50
46085;DHT22;31823;47.032;8.310;2023-04-09T12:17:49;13.70;99.90
46085;DHT22;31823;47.032;8.310;2023-04-09T12:22:54;14.90;99.00
46085;DHT22;31823;47.032;8.310;2023-04-09T12:25:20;15.60;98.20
46085;DHT22;31823;47.032;8.310;2023-04-09T12:27:46;15.70;96.60
46085;DHT22;31823;47.032;8.310;2023-04-09T12:30:11;16.10;96.50
46085;DHT22;31823;47.032;8.310;2023-04-09T12:32:37;15.10;95.70
46085;DHT22;31823;47.032;8.310;2023-04-09T12:35:03;15.40;96.00
46085;DHT22;31823;47.032;8.310;2023-04-09T12:37:29;15.50;96.30
46085;DHT22;31823;47.032;8.310;2023-04-09T12:39:55;16.10;94.80
46085;DHT22;31823;47.032;8.310;2023-04-09T12:42:20;15.40;96.70
46085;DHT22;31823;47.032;8.310;2023-04-09T12:44:46;16.70;94.40
46085;DHT22;31823;47.032;8.310;2023-04-09T12:47:12;16.20;96.60
46085;DHT22;31823;47.032;8.310;2023-04-09T12:49:37;16.30;96.00
46085;DHT22;31823;47.032;8.310;2023-04-09T12:52:04;16.40;96.00
46085;DHT22;31823;47.032;8.310;2023-04-09T12:54:29;16.60;95.50
46085;DHT22;31823;47.032;8.310;2023-04-09T12:56:56;16.90;94.50
46085;DHT22;31823;47.032;8.310;2023-04-09T12:59:21;17.30;93.30
46085;DHT22;31823;47.032;8.310;2023-04-09T13:01:47;16.50;94.40
46085;DHT22;31823;47.032;8.310;2023-04-09T13:04:12;16.10;95.40
46085;DHT22;31823;47.032;8.310;2023-04-09T13:06:38;16.10;94.70
46085;DHT22;31823;47.032;8.310;2023-04-09T13:09:03;16.30;95.90
46085;DHT22;31823;47.032;8.310;2023-04-09T13:11:29;16.20;94.10
46085;DHT22;31823;47.032;8.310;2023-04-09T13:13:55;16.50;93.90
46085;DHT22;31823;47.032;8.310;2023-04-09T13:16:20;16.60;94.80
46085;DHT22;31823;47.032;8.310;2023-04-09T13:18:46;16.10;95.40
46085;DHT22;31823;47.032;8.310;2023-04-09T13:21:12;15.10;95.90
46085;DHT22;31823;47.032;8.310;2023-04-09T13:23:43;15.20;96.20
46085;DHT22;31823;47.032;8.310;2023-04-09T13:26:08;14.90;95.60
46085;DHT22;31823;47.032;8.310;2023-04-09T13:28:34;14.10;95.50
46085;DHT22;31823;47.032;8.310;2023-04-09T13:30:59;15.00;95.90
46085;DHT22;31823;47.032;8.310;2023-04-09T13:33:25;15.90;96.80
46085;DHT22;31823;47.032;8.310;2023-04-09T13:35:51;16.40;96.00
46085;DHT22;31823;47.032;8.310;2023-04-09T13:38:16;16.50;95.20
46085;DHT22;31823;47.032;8.310;2023-04-09T13:40:43;17.20;90.70
46085;DHT22;31823;47.032;8.310;2023-04-09T13:43:10;17.20;94.20
46085;DHT22;31823;47.032;8.310;2023-04-09T13:45:35;16.40;93.40
46085;DHT22;31823;47.032;8.310;2023-04-09T13:48:01;16.20;93.70
46085;DHT22;31823;47.032;8.310;2023-04-09T13:50:26;16.50;92.30
46085;DHT22;31823;47.032;8.310;2023-04-09T13:52:52;16.20;93.90
46085;DHT22;31823;47.032;8.310;2023-04-09T13:55:17;16.60;93.40
46085;DHT22;31823;47.032;8.310;2023-04-09T13:57:43;16.90;95.20
46085;DHT22;31823;47.032;8.310;2023-04-09T14:00:09;16.90;93.90
46085;DHT22;31823;47.032;8.310;2023-04-09T14:02:35;16.90;93.70
46085;DHT22;31823;47.032;8.310;2023-04-09T14:05:00;16.70;94.50
46085;DHT22;31823;47.032;8.310;2023-04-09T14:07:28;17.00;95.00
46085;DHT22;31823;47.032;8.310;2023-04-09T14:09:53;16.30;93.20
46085;DHT22;31823;47.032;8.310;2023-04-09T14:12:19;16.70;92.40
46085;DHT22;31823;47.032;8.310;2023-04-09T14:14:44;16.40;92.60
46085;DHT22;31823;47.032;8.310;2023-04-09T14:17:10;16.10;92.40
46085;DHT22;31823;47.032;8.310;2023-04-09T14:19:36;16.60;91.30
46085;DHT22;31823;47.032;8.310;2023-04-09T14:22:02;16.60;91.30
46085;DHT22;31823;47.032;8.310;2023-04-09T14:24:27;16.70;91.60
46085;DHT22;31823;47.032;8.310;2023-04-09T14:26:53;16.60;91.40
46085;DHT22;31823;47.032;8.310;2023-04-09T14:29:19;16.20;90.70
46085;DHT22;31823;47.032;8.310;2023-04-09T14:31:45;15.90;92.00
46085;DHT22;31823;47.032;8.310;2023-04-09T14:34:12;16.30;92.60
46085;DHT22;31823;47.032;8.310;2023-04-09T14:36:38;16.80;90.00
46085;DHT22;31823;47.032;8.310;2023-04-09T14:39:05;17.20;91.50
46085;DHT22;31823;47.032;8.310;2023-04-09T14:41:30;16.80;91.00
46085;DHT22;31823;47.032;8.310;2023-04-09T14:43:58;16.70;91.50
46085;DHT22;31823;47.032;8.310;2023-04-09T14:46:24;16.50;92.90
46085;DHT22;31823;47.032;8.310;2023-04-09T14:48:49;16.70;91.60
46085;DHT22;31823;47.032;8.310;2023-04-09T14:51:15;16.40;90.00
46085;DHT22;31823;47.032;8.310;2023-04-09T14:53:40;16.70;90.00
46085;DHT22;31823;47.032;8.310;2023-04-09T14:56:06;17.00;91.20
46085;DHT22;31823;47.032;8.310;2023-04-09T14:58:32;16.30;91.00
46085;DHT22;31823;47.032;8.310;2023-04-09T15:00:58;16.30;92.00
46085;DHT22;31823;47.032;8.310;2023-04-09T15:03:24;16.70;92.30
46085;DHT22;31823;47.032;8.310;2023-04-09T15:05:50;16.10;91.40
46085;DHT22;31823;47.032;8.310;2023-04-09T15:08:15;16.20;91.10
46085;DHT22;31823;47.032;8.310;2023-04-09T15:10:41;16.00;91.70
46085;DHT22;31823;47.032;8.310;2023-04-09T15:13:07;16.00;92.30
46085;DHT22;31823;47.032;8.310;2023-04-09T15:15:32;16.10;91.70
46085;DHT22;31823;47.032;8.310;2023-04-09T15:17:58;16.00;91.00
46085;DHT22;31823;47.032;8.310;2023-04-09T15:20:30;16.20;91.60
46085;DHT22;31823;47.032;8.310;2023-04-09T15:22:55;15.60;92.00
46085;DHT22;31823;47.032;8.310;2023-04-09T15:25:21;15.70;91.40
46085;DHT22;31823;47.032;8.310;2023-04-09T15:27:48;15.90;92.90
46085;DHT22;31823;47.032;8.310;2023-04-09T15:30:14;15.80;91.50
46085;DHT22;31823;47.032;8.310;2023-04-09T15:32:40;15.30;90.90
46085;DHT22;31823;47.032;8.310;2023-04-09T15:35:05;15.80;93.20
46085;DHT22;31823;47.032;8.310;2023-04-09T15:37:31;15.80;91.70
46085;DHT22;31823;47.032;8.310;2023-04-09T15:39:57;15.80;91.20
46085;DHT22;31823;47.032;8.310;2023-04-09T15:42:22;15.50;92.40
46085;DHT22;31823;47.032;8.310;2023-04-09T15:44:48;15.50;91.20
46085;DHT22;31823;47.032;8.310;2023-04-09T15:47:14;15.30;90.40
46085;DHT22;31823;47.032;8.310;2023-04-09T15:49:40;15.20;93.40
46085;DHT22;31823;47.032;8.310;2023-04-09T15:52:06;15.30;91.40
46085;DHT22;31823;47.032;8.310;2023-04-09T15:54:31;15.70;92.00
46085;DHT22;31823;47.032;8.310;2023-04-09T15:56:58;15.70;91.30
46085;DHT22;31823;47.032;8.310;2023-04-09T15:59:24;15.00;91.60
46085;DHT22;31823;47.032;8.310;2023-04-09T16:01:50;15.00;91.50